createdAt,value
2023-03-12T00:00:14.007Z,980.94
2023-03-12T00:01:13.834Z,980.95
2023-03-12T00:02:13.877Z,980.93
2023-03-12T00:03:13.819Z,980.93
2023-03-12T00:04:13.797Z,980.89
2023-03-12T00:05:13.812Z,980.91
2023-03-12T00:06:13.770Z,980.93
2023-03-12T00:07:13.784Z,980.95
2023-03-12T00:08:13.776Z,980.96
2023-03-12T00:09:13.775Z,980.97
2023-03-12T00:10:13.729Z,980.95
2023-03-12T00:11:13.740Z,980.92
2023-03-12T00:12:13.710Z,980.97
2023-03-12T00:13:13.718Z,981.02
2023-03-12T00:14:13.693Z,980.96
2023-03-12T00:15:13.682Z,980.97
2023-03-12T00:16:13.718Z,981.08
2023-03-12T00:17:13.684Z,981.00
2023-03-12T00:18:13.638Z,980.99
2023-03-12T00:19:13.648Z,980.98
2023-03-12T00:20:13.627Z,981.01
2023-03-12T00:21:13.630Z,981.02
2023-03-12T00:22:13.618Z,981.01
2023-03-12T00:23:13.597Z,981.03
2023-03-12T00:24:13.580Z,980.98
2023-03-12T00:25:13.582Z,981.00
2023-03-12T00:26:13.569Z,981.04
2023-03-12T00:27:13.574Z,980.99
2023-03-12T00:28:13.540Z,981.04
2023-03-12T00:29:13.547Z,981.02
2023-03-12T00:30:13.529Z,981.06
2023-03-12T00:31:13.525Z,980.95
2023-03-12T00:32:13.520Z,981.05
2023-03-12T00:33:13.488Z,980.93
2023-03-12T00:34:13.475Z,980.96
2023-03-12T00:35:13.498Z,980.92
2023-03-12T00:36:13.471Z,981.10
2023-03-12T00:37:13.466Z,981.00
2023-03-12T00:38:13.427Z,980.97
2023-03-12T00:39:13.428Z,981.01
2023-03-12T00:40:13.409Z,980.93
2023-03-12T00:41:13.407Z,980.96
2023-03-12T00:42:13.405Z,980.98
2023-03-12T00:43:13.384Z,980.94
2023-03-12T00:44:13.364Z,980.94
2023-03-12T00:45:13.394Z,980.89
2023-03-12T00:46:13.404Z,980.92
2023-03-12T00:47:13.347Z,980.94
2023-03-12T00:48:13.336Z,980.93
2023-03-12T00:49:13.316Z,980.88
2023-03-12T00:50:13.318Z,980.85
2023-03-12T00:51:13.304Z,980.83
2023-03-12T00:52:13.295Z,980.84
2023-03-12T00:53:13.274Z,980.84
2023-03-12T00:54:13.389Z,980.89
2023-03-12T00:55:13.259Z,980.83
2023-03-12T00:56:13.241Z,980.91
2023-03-12T00:57:13.244Z,980.97
2023-03-12T00:58:13.223Z,980.91
2023-03-12T00:59:13.213Z,980.85
2023-03-12T01:00:13.193Z,980.85
2023-03-12T01:01:13.262Z,980.89
2023-03-12T01:02:13.194Z,980.83
2023-03-12T01:03:13.176Z,980.86
2023-03-12T01:04:13.174Z,980.91
2023-03-12T01:05:13.154Z,980.94
2023-03-12T01:06:13.140Z,980.92
2023-03-12T01:07:13.127Z,980.87
2023-03-12T01:08:13.125Z,980.86
2023-03-12T01:09:13.132Z,980.87
2023-03-12T01:10:13.098Z,980.91
2023-03-12T01:11:13.090Z,980.90
2023-03-12T01:12:13.080Z,980.87
2023-03-12T01:13:13.070Z,980.80
2023-03-12T01:14:13.080Z,980.80
2023-03-12T01:15:13.050Z,980.91
2023-03-12T01:16:13.047Z,980.86
2023-03-12T01:17:13.030Z,980.82
2023-03-12T01:18:13.028Z,980.84
2023-03-12T01:19:13.020Z,980.80
2023-03-12T01:20:12.994Z,980.84
2023-03-12T01:21:12.990Z,980.93
2023-03-12T01:22:12.989Z,980.89
2023-03-12T01:23:12.973Z,980.99
2023-03-12T01:24:12.950Z,980.91
2023-03-12T01:25:12.948Z,980.92
2023-03-12T01:26:12.968Z,980.92
2023-03-12T01:27:12.932Z,980.89
2023-03-12T01:28:12.915Z,980.83
2023-03-12T01:29:12.904Z,980.84
2023-03-12T01:30:12.890Z,980.87
2023-03-12T01:31:13.002Z,980.85
2023-03-12T01:32:12.872Z,980.84
2023-03-12T01:33:12.895Z,980.92
2023-03-12T01:34:12.850Z,980.84
2023-03-12T01:35:12.918Z,980.82
2023-03-12T01:36:12.878Z,980.87
2023-03-12T01:37:12.822Z,980.91
2023-03-12T01:38:12.800Z,980.97
2023-03-12T01:39:12.818Z,980.94
2023-03-12T01:40:12.785Z,980.94
2023-03-12T01:41:12.778Z,980.94
2023-03-12T01:42:12.768Z,980.91
2023-03-12T01:43:12.767Z,980.95
2023-03-12T01:44:12.748Z,980.89
2023-03-12T01:45:12.737Z,980.94
2023-03-12T01:46:12.779Z,980.96
2023-03-12T01:47:12.710Z,980.95
2023-03-12T01:48:12.716Z,980.93
2023-03-12T01:49:12.686Z,980.93
2023-03-12T01:50:12.696Z,980.95
2023-03-12T01:51:12.666Z,980.96
2023-03-12T01:52:12.655Z,980.91
2023-03-12T01:53:12.647Z,980.89
2023-03-12T01:54:12.651Z,980.93
2023-03-12T01:55:12.625Z,980.87
2023-03-12T01:56:12.613Z,980.88
2023-03-12T01:57:12.606Z,980.90
2023-03-12T01:58:12.595Z,980.93
2023-03-12T01:59:12.597Z,980.89
2023-03-12T02:00:12.592Z,980.96
2023-03-12T02:01:12.621Z,980.95
2023-03-12T02:02:12.544Z,980.95
2023-03-12T02:03:12.545Z,980.89
2023-03-12T02:04:12.611Z,980.87
2023-03-12T02:05:12.537Z,980.90
2023-03-12T02:06:12.505Z,980.92
2023-03-12T02:07:12.503Z,980.88
2023-03-12T02:08:12.489Z,980.86
2023-03-12T02:09:12.483Z,980.78
2023-03-12T02:10:12.474Z,980.81
2023-03-12T02:11:12.455Z,980.81
2023-03-12T02:12:12.444Z,980.89
2023-03-12T02:13:12.435Z,980.84
2023-03-12T02:14:12.427Z,980.88
2023-03-12T02:15:12.416Z,980.89
2023-03-12T02:16:13.903Z,980.89
2023-03-12T02:17:12.416Z,980.88
2023-03-12T02:18:12.386Z,980.87
2023-03-12T02:19:12.379Z,980.86
2023-03-12T02:20:12.377Z,980.84
2023-03-12T02:21:12.358Z,980.79
2023-03-12T02:22:12.346Z,980.83
2023-03-12T02:23:12.336Z,980.83
2023-03-12T02:24:12.336Z,980.85
2023-03-12T02:25:12.307Z,980.83
2023-03-12T02:26:12.298Z,980.78
2023-03-12T02:27:12.334Z,980.82
2023-03-12T02:28:12.279Z,980.81
2023-03-12T02:29:12.268Z,980.82
2023-03-12T02:30:12.277Z,980.76
2023-03-12T02:31:12.258Z,980.81
2023-03-12T02:32:12.257Z,980.79
2023-03-12T02:33:12.228Z,980.83
2023-03-12T02:34:12.217Z,980.83
2023-03-12T02:35:12.218Z,980.83
2023-03-12T02:36:12.249Z,980.85
2023-03-12T02:37:12.198Z,980.74
2023-03-12T02:38:12.178Z,980.78
2023-03-12T02:39:12.168Z,980.82
2023-03-12T02:40:12.149Z,980.87
2023-03-12T02:41:12.147Z,980.85
2023-03-12T02:42:12.145Z,980.84
2023-03-12T02:43:12.128Z,980.80
2023-03-12T02:44:12.110Z,980.88
2023-03-12T02:45:12.111Z,980.81
2023-03-12T02:46:12.129Z,980.81
2023-03-12T02:47:12.098Z,980.78
2023-03-12T02:48:12.069Z,980.76
2023-03-12T02:49:12.068Z,980.78
2023-03-12T02:50:12.045Z,980.78
2023-03-12T02:51:12.039Z,980.79
2023-03-12T02:52:12.041Z,980.79
2023-03-12T02:53:12.020Z,980.88
2023-03-12T02:54:11.999Z,980.84
2023-03-12T02:55:12.003Z,980.89
2023-03-12T02:56:11.983Z,980.84
2023-03-12T02:57:11.980Z,980.79
2023-03-12T02:58:11.969Z,980.78
2023-03-12T02:59:11.972Z,980.80
2023-03-12T03:00:11.978Z,980.79
2023-03-12T03:01:11.952Z,980.79
2023-03-12T03:02:11.918Z,980.76
2023-03-12T03:03:11.912Z,980.78
2023-03-12T03:04:11.940Z,980.74
2023-03-12T03:05:11.890Z,980.82
2023-03-12T03:06:11.870Z,980.79
2023-03-12T03:07:11.870Z,980.80
2023-03-12T03:08:11.871Z,980.83
2023-03-12T03:09:11.850Z,980.80
2023-03-12T03:10:11.838Z,980.78
2023-03-12T03:11:11.823Z,980.79
2023-03-12T03:12:11.838Z,980.80
2023-03-12T03:13:11.810Z,980.72
2023-03-12T03:14:11.792Z,980.79
2023-03-12T03:15:11.795Z,980.71
2023-03-12T03:16:11.846Z,980.71
2023-03-12T03:17:11.760Z,980.68
2023-03-12T03:18:11.753Z,980.60
2023-03-12T03:19:11.740Z,980.58
2023-03-12T03:20:11.735Z,980.58
2023-03-12T03:21:11.722Z,980.63
2023-03-12T03:22:11.712Z,980.65
2023-03-12T03:23:11.702Z,980.59
2023-03-12T03:24:11.716Z,980.55
2023-03-12T03:25:11.697Z,980.49
2023-03-12T03:26:11.676Z,980.54
2023-03-12T03:27:11.654Z,980.54
2023-03-12T03:28:11.653Z,980.50
2023-03-12T03:29:11.743Z,980.48
2023-03-12T03:30:11.633Z,980.46
2023-03-12T03:31:11.680Z,980.47
2023-03-12T03:32:11.610Z,980.43
2023-03-12T03:33:11.592Z,980.45
2023-03-12T03:34:11.582Z,980.48
2023-03-12T03:35:11.571Z,980.48
2023-03-12T03:36:11.580Z,980.46
2023-03-12T03:37:11.553Z,980.48
2023-03-12T03:38:11.542Z,980.54
2023-03-12T03:39:11.529Z,980.59
2023-03-12T03:40:11.528Z,980.60
2023-03-12T03:41:11.514Z,980.59
2023-03-12T03:42:11.501Z,980.61
2023-03-12T03:43:11.491Z,980.60
2023-03-12T03:44:11.492Z,980.55
2023-03-12T03:45:11.464Z,980.64
2023-03-12T03:46:11.495Z,980.57
2023-03-12T03:47:11.448Z,980.53
2023-03-12T03:48:11.453Z,980.54
2023-03-12T03:49:11.432Z,980.56
2023-03-12T03:50:11.419Z,980.60
2023-03-12T03:51:11.404Z,980.57
2023-03-12T03:52:11.416Z,980.64
2023-03-12T03:53:11.378Z,980.63
2023-03-12T03:54:11.375Z,980.57
2023-03-12T03:55:11.361Z,980.60
2023-03-12T03:56:11.354Z,980.61
2023-03-12T03:57:11.351Z,980.63
2023-03-12T03:58:11.364Z,980.61
2023-03-12T03:59:11.332Z,980.65
2023-03-12T04:00:11.324Z,980.58
2023-03-12T04:01:11.304Z,980.53
2023-03-12T04:02:11.292Z,980.57
2023-03-12T04:03:11.289Z,980.53
2023-03-12T04:04:11.272Z,980.53
2023-03-12T04:05:11.294Z,980.51
2023-03-12T04:06:11.251Z,980.47
2023-03-12T04:07:11.253Z,980.39
2023-03-12T04:08:11.231Z,980.36
2023-03-12T04:09:11.218Z,980.28
2023-03-12T04:10:11.207Z,980.34
2023-03-12T04:11:11.190Z,980.30
2023-03-12T04:12:11.203Z,980.37
2023-03-12T04:13:11.171Z,980.31
2023-03-12T04:14:11.165Z,980.33
2023-03-12T04:15:11.149Z,980.32
2023-03-12T04:16:11.254Z,980.34
2023-03-12T04:17:11.153Z,980.30
2023-03-12T04:18:11.152Z,980.37
2023-03-12T04:19:11.103Z,980.33
2023-03-12T04:20:11.109Z,980.37
2023-03-12T04:21:11.085Z,980.42
2023-03-12T04:22:11.092Z,980.41
2023-03-12T04:23:11.080Z,980.39
2023-03-12T04:24:11.060Z,980.41
2023-03-12T04:25:11.041Z,980.42
2023-03-12T04:26:11.043Z,980.41
2023-03-12T04:27:11.044Z,980.36
2023-03-12T04:28:11.012Z,980.42
2023-03-12T04:29:11.012Z,980.42
2023-03-12T04:30:10.996Z,980.42
2023-03-12T04:31:11.012Z,980.44
2023-03-12T04:32:11.002Z,980.42
2023-03-12T04:33:10.964Z,980.46
2023-03-12T04:34:13.934Z,980.44
2023-03-12T04:35:10.942Z,980.43
2023-03-12T04:36:10.944Z,980.48
2023-03-12T04:37:10.913Z,980.48
2023-03-12T04:38:10.919Z,980.51
2023-03-12T04:39:10.903Z,980.49
2023-03-12T04:40:10.923Z,980.46
2023-03-12T04:41:10.886Z,980.50
2023-03-12T04:42:10.879Z,980.41
2023-03-12T04:43:10.859Z,980.44
2023-03-12T04:44:12.743Z,980.39
2023-03-12T04:45:10.836Z,980.40
2023-03-12T04:46:10.919Z,980.38
2023-03-12T04:47:10.828Z,980.41
2023-03-12T04:48:10.807Z,980.46
2023-03-12T04:49:10.820Z,980.42
2023-03-12T04:50:10.791Z,980.43
2023-03-12T04:51:10.783Z,980.41
2023-03-12T04:52:10.788Z,980.41
2023-03-12T04:53:10.778Z,980.40
2023-03-12T04:54:10.747Z,980.37
2023-03-12T04:55:10.747Z,980.39
2023-03-12T04:56:10.728Z,980.33
2023-03-12T04:57:10.718Z,980.38
2023-03-12T04:58:10.713Z,980.39
2023-03-12T04:59:10.708Z,980.35
2023-03-12T05:00:10.708Z,980.30
2023-03-12T05:01:10.669Z,980.21
2023-03-12T05:02:10.671Z,980.29
2023-03-12T05:03:10.698Z,980.32
2023-03-12T05:04:10.703Z,980.37
2023-03-12T05:05:10.657Z,980.35
2023-03-12T05:06:10.628Z,980.38
2023-03-12T05:07:10.617Z,980.39
2023-03-12T05:08:10.601Z,980.37
2023-03-12T05:09:10.606Z,980.37
2023-03-12T05:10:10.594Z,980.33
2023-03-12T05:11:10.571Z,980.36
2023-03-12T05:12:10.562Z,980.30
2023-03-12T05:13:10.550Z,980.31
2023-03-12T05:14:10.571Z,980.26
2023-03-12T05:15:10.531Z,980.23
2023-03-12T05:16:10.534Z,980.23
2023-03-12T05:17:10.518Z,980.28
2023-03-12T05:18:10.499Z,980.29
2023-03-12T05:19:10.479Z,980.31
2023-03-12T05:20:10.486Z,980.31
2023-03-12T05:21:10.478Z,980.26
2023-03-12T05:22:10.460Z,980.25
2023-03-12T05:23:10.440Z,980.26
2023-03-12T05:24:10.442Z,980.28
2023-03-12T05:25:10.421Z,980.24
2023-03-12T05:26:10.416Z,980.11
2023-03-12T05:27:10.407Z,980.21
2023-03-12T05:28:10.410Z,980.19
2023-03-12T05:29:10.398Z,980.24
2023-03-12T05:30:10.380Z,980.26
2023-03-12T05:31:10.403Z,980.31
2023-03-12T05:32:10.375Z,980.32
2023-03-12T05:33:10.334Z,980.31
2023-03-12T05:34:10.331Z,980.27
2023-03-12T05:35:10.360Z,980.22
2023-03-12T05:36:10.355Z,980.22
2023-03-12T05:37:10.314Z,980.26
2023-03-12T05:38:10.289Z,980.33
2023-03-12T05:39:10.279Z,980.31
2023-03-12T05:40:10.271Z,980.28
2023-03-12T05:41:10.269Z,980.32
2023-03-12T05:42:10.242Z,980.26
2023-03-12T05:43:10.232Z,980.25
2023-03-12T05:44:10.253Z,980.35
2023-03-12T05:45:10.238Z,980.31
2023-03-12T05:46:10.283Z,980.33
2023-03-12T05:47:10.190Z,980.34
2023-03-12T05:48:10.186Z,980.33
2023-03-12T05:49:10.180Z,980.44
2023-03-12T05:50:10.175Z,980.36
2023-03-12T05:51:10.143Z,980.37
2023-03-12T05:52:10.144Z,980.47
2023-03-12T05:53:10.121Z,980.47
2023-03-12T05:54:10.124Z,980.53
2023-03-12T05:55:10.130Z,980.46
2023-03-12T05:56:10.248Z,980.42
2023-03-12T05:57:10.926Z,980.46
2023-03-12T05:58:10.099Z,980.41
2023-03-12T05:59:10.058Z,980.43
2023-03-12T06:00:10.079Z,980.38
2023-03-12T06:01:10.037Z,980.44
2023-03-12T06:02:10.082Z,980.43
2023-03-12T06:03:10.067Z,980.39
2023-03-12T06:04:10.007Z,980.46
2023-03-12T06:05:10.030Z,980.42
2023-03-12T06:06:09.985Z,980.42
2023-03-12T06:07:09.981Z,980.43
2023-03-12T06:08:09.968Z,980.37
2023-03-12T06:09:09.973Z,980.45
2023-03-12T06:10:09.953Z,980.41
2023-03-12T06:11:09.945Z,980.40
2023-03-12T06:12:09.924Z,980.42
2023-03-12T06:13:09.906Z,980.37
2023-03-12T06:14:09.910Z,980.40
2023-03-12T06:15:09.887Z,980.42
2023-03-12T06:16:10.003Z,980.42
2023-03-12T06:17:09.866Z,980.42
2023-03-12T06:18:09.904Z,980.37
2023-03-12T06:19:09.844Z,980.32
2023-03-12T06:20:09.843Z,980.35
2023-03-12T06:21:09.833Z,980.36
2023-03-12T06:22:09.815Z,980.28
2023-03-12T06:23:09.806Z,980.34
2023-03-12T06:24:09.847Z,980.34
2023-03-12T06:25:09.785Z,980.34
2023-03-12T06:26:09.776Z,980.34
2023-03-12T06:27:09.769Z,980.37
2023-03-12T06:28:09.757Z,980.32
2023-03-12T06:29:09.745Z,980.41
2023-03-12T06:30:09.747Z,980.35
2023-03-12T06:31:09.763Z,980.36
2023-03-12T06:32:09.718Z,980.33
2023-03-12T06:33:09.696Z,980.33
2023-03-12T06:34:09.706Z,980.33
2023-03-12T06:35:09.698Z,980.26
2023-03-12T06:36:09.666Z,980.29
2023-03-12T06:37:09.654Z,980.26
2023-03-12T06:38:09.645Z,980.25
2023-03-12T06:39:09.672Z,980.27
2023-03-12T06:40:09.658Z,980.24
2023-03-12T06:41:09.613Z,980.27
2023-03-12T06:42:09.618Z,980.28
2023-03-12T06:43:09.589Z,980.26
2023-03-12T06:44:09.586Z,980.20
2023-03-12T06:45:09.668Z,980.18
2023-03-12T06:46:09.892Z,980.16
2023-03-12T06:47:09.553Z,980.16
2023-03-12T06:48:09.548Z,980.12
2023-03-12T06:49:09.527Z,980.18
2023-03-12T06:50:09.606Z,980.16
2023-03-12T06:51:09.505Z,980.23
2023-03-12T06:52:09.498Z,980.14
2023-03-12T06:53:09.489Z,980.12
2023-03-12T06:54:09.484Z,980.14
2023-03-12T06:55:09.477Z,980.14
2023-03-12T06:56:09.454Z,980.14
2023-03-12T06:57:09.467Z,980.16
2023-03-12T06:58:09.436Z,980.21
2023-03-12T06:59:09.427Z,980.22
2023-03-12T07:00:09.448Z,980.24
2023-03-12T07:01:09.407Z,980.24
2023-03-12T07:02:09.425Z,980.21
2023-03-12T07:03:09.396Z,980.27
2023-03-12T07:04:09.378Z,980.32
2023-03-12T07:05:09.408Z,980.29
2023-03-12T07:06:09.370Z,980.33
2023-03-12T07:07:10.451Z,980.35
2023-03-12T07:08:09.341Z,980.38
2023-03-12T07:09:10.054Z,980.36
2023-03-12T07:10:09.394Z,980.30
2023-03-12T07:11:09.602Z,980.33
2023-03-12T07:12:09.612Z,980.29
2023-03-12T07:13:09.581Z,980.32
2023-03-12T07:14:09.293Z,980.28
2023-03-12T07:15:09.262Z,980.24
2023-03-12T07:16:09.303Z,980.38
2023-03-12T07:17:09.241Z,980.31
2023-03-12T07:18:09.239Z,980.33
2023-03-12T07:19:09.271Z,980.36
2023-03-12T07:20:09.240Z,980.30
2023-03-12T07:21:09.219Z,980.34
2023-03-12T07:22:09.197Z,980.29
2023-03-12T07:23:09.185Z,980.37
2023-03-12T07:24:09.174Z,980.38
2023-03-12T07:25:09.165Z,980.37
2023-03-12T07:26:09.167Z,980.34
2023-03-12T07:27:09.147Z,980.38
2023-03-12T07:28:09.127Z,980.33
2023-03-12T07:29:09.119Z,980.40
2023-03-12T07:30:09.119Z,980.42
2023-03-12T07:31:09.405Z,980.28
2023-03-12T07:32:09.097Z,980.36
2023-03-12T07:33:09.960Z,980.39
2023-03-12T07:34:09.174Z,980.43
2023-03-12T07:35:09.787Z,980.43
2023-03-12T07:36:09.180Z,980.44
2023-03-12T07:37:10.570Z,980.47
2023-03-12T07:38:09.053Z,980.49
2023-03-12T07:39:09.077Z,980.44
2023-03-12T07:40:09.067Z,980.47
2023-03-12T07:41:09.772Z,980.47
2023-03-12T07:42:09.031Z,980.46
2023-03-12T07:43:09.665Z,980.45
2023-03-12T07:44:09.024Z,980.53
2023-03-12T07:45:09.078Z,980.47
2023-03-12T07:46:08.945Z,980.46
2023-03-12T07:47:22.571Z,980.47
2023-03-12T07:48:09.952Z,980.46
2023-03-12T07:49:08.929Z,980.51
2023-03-12T07:50:08.922Z,980.37
2023-03-12T07:51:08.918Z,980.47
2023-03-12T07:52:08.911Z,980.43
2023-03-12T07:53:08.862Z,980.48
2023-03-12T07:54:08.855Z,980.43
2023-03-12T07:55:08.935Z,980.45
2023-03-12T07:56:08.926Z,980.37
2023-03-12T07:57:09.021Z,980.38
2023-03-12T07:58:08.942Z,980.38
2023-03-12T07:59:08.907Z,980.42
2023-03-12T08:00:08.900Z,980.38
2023-03-12T08:01:08.868Z,980.42
2023-03-12T08:02:08.899Z,980.43
2023-03-12T08:03:09.094Z,980.38
2023-03-12T08:04:08.879Z,980.37
2023-03-12T08:05:08.758Z,980.45
2023-03-12T08:06:08.778Z,980.44
2023-03-12T08:07:09.397Z,980.43
2023-03-12T08:08:08.775Z,980.47
2023-03-12T08:09:08.693Z,980.45
2023-03-12T08:10:08.752Z,980.44
2023-03-12T08:11:08.677Z,980.47
2023-03-12T08:12:09.439Z,980.47
2023-03-12T08:13:08.705Z,980.56
2023-03-12T08:14:09.376Z,980.52
2023-03-12T08:15:08.643Z,980.46
2023-03-12T08:16:09.652Z,980.51
2023-03-12T08:17:08.622Z,980.49
2023-03-12T08:18:08.624Z,980.50
2023-03-12T08:19:08.606Z,980.47
2023-03-12T08:20:08.584Z,980.54
2023-03-12T08:21:08.562Z,980.50
2023-03-12T08:22:08.552Z,980.49
2023-03-12T08:23:08.543Z,980.47
2023-03-12T08:24:08.546Z,980.48
2023-03-12T08:25:08.632Z,980.52
2023-03-12T08:26:08.521Z,980.54
2023-03-12T08:27:08.515Z,980.60
2023-03-12T08:28:08.484Z,980.54
2023-03-12T08:29:08.483Z,980.49
2023-03-12T08:30:08.464Z,980.55
2023-03-12T08:31:08.461Z,980.59
2023-03-12T08:32:08.461Z,980.60
2023-03-12T08:33:08.574Z,980.55
2023-03-12T08:34:08.428Z,980.57
2023-03-12T08:35:08.416Z,980.59
2023-03-12T08:36:08.441Z,980.62
2023-03-12T08:37:08.404Z,980.58
2023-03-12T08:38:08.384Z,980.56
2023-03-12T08:39:08.384Z,980.59
2023-03-12T08:40:08.363Z,980.57
2023-03-12T08:41:08.360Z,980.55
2023-03-12T08:42:08.343Z,980.67
2023-03-12T08:43:08.326Z,980.55
2023-03-12T08:44:08.325Z,980.55
2023-03-12T08:45:08.305Z,980.60
2023-03-12T08:46:09.832Z,980.53
2023-03-12T08:47:08.321Z,980.59
2023-03-12T08:48:08.276Z,980.56
2023-03-12T08:49:08.276Z,980.54
2023-03-12T08:50:08.246Z,980.46
2023-03-12T08:51:08.243Z,980.55
2023-03-12T08:52:08.229Z,980.50
2023-03-12T08:53:08.228Z,980.53
2023-03-12T08:54:08.226Z,980.55
2023-03-12T08:55:08.217Z,980.51
2023-03-12T08:56:08.185Z,980.48
2023-03-12T08:57:08.179Z,980.56
2023-03-12T08:58:08.162Z,980.52
2023-03-12T08:59:08.177Z,980.51
2023-03-12T09:00:08.140Z,980.51
2023-03-12T09:01:08.149Z,980.55
2023-03-12T09:02:08.119Z,980.46
2023-03-12T09:03:08.178Z,980.46
2023-03-12T09:04:08.663Z,980.42
2023-03-12T09:05:08.090Z,980.36
2023-03-12T09:06:08.102Z,980.35
2023-03-12T09:07:08.070Z,980.43
2023-03-12T09:08:08.067Z,980.44
2023-03-12T09:09:08.100Z,980.42
2023-03-12T09:10:08.043Z,980.36
2023-03-12T09:11:08.042Z,980.40
2023-03-12T09:12:08.031Z,980.36
2023-03-12T09:13:08.031Z,980.34
2023-03-12T09:15:00.940Z,980.42
2023-03-12T09:15:09.149Z,980.35
2023-03-12T09:16:07.995Z,980.42
2023-03-12T09:17:08.725Z,980.42
2023-03-12T09:18:09.091Z,980.38
2023-03-12T09:19:09.131Z,980.34
2023-03-12T09:20:07.988Z,980.43
2023-03-12T09:21:08.712Z,980.44
2023-03-12T09:22:08.172Z,980.43
2023-03-12T09:23:08.609Z,980.45
2023-03-12T09:24:07.958Z,980.49
2023-03-12T09:25:08.606Z,980.53
2023-03-12T09:26:07.938Z,980.49
2023-03-12T09:27:08.218Z,980.55
2023-03-12T09:28:07.941Z,980.46
2023-03-12T09:29:09.401Z,980.45
2023-03-12T09:30:07.859Z,980.39
2023-03-12T09:31:08.012Z,980.42
2023-03-12T09:32:07.831Z,980.44
2023-03-12T09:33:08.219Z,980.47
2023-03-12T09:34:07.976Z,980.47
2023-03-12T09:35:08.962Z,980.44
2023-03-12T09:36:07.853Z,980.44
2023-03-12T09:37:07.929Z,980.46
2023-03-12T09:38:07.760Z,980.45
2023-03-12T09:39:07.889Z,980.48
2023-03-12T09:40:07.869Z,980.46
2023-03-12T09:41:07.856Z,980.49
2023-03-12T09:42:07.734Z,980.53
2023-03-12T09:43:08.407Z,980.53
2023-03-12T09:44:07.819Z,980.55
2023-03-12T09:45:07.730Z,980.55
2023-03-12T09:46:07.710Z,980.56
2023-03-12T09:47:07.716Z,980.50
2023-03-12T09:48:07.891Z,980.54
2023-03-12T09:49:08.393Z,980.52
2023-03-12T09:50:07.639Z,980.55
2023-03-12T09:51:09.548Z,980.50
2023-03-12T09:52:07.684Z,980.56
2023-03-12T09:53:07.653Z,980.54
2023-03-12T09:54:07.692Z,980.47
2023-03-12T09:55:07.621Z,980.47
2023-03-12T09:56:07.711Z,980.53
2023-03-12T09:57:07.629Z,980.53
2023-03-12T09:58:07.570Z,980.46
2023-03-12T09:59:07.592Z,980.48
2023-03-12T10:00:07.613Z,980.55
2023-03-12T10:01:08.079Z,980.53
2023-03-12T10:02:07.896Z,980.52
2023-03-12T10:03:09.993Z,980.46
2023-03-12T10:04:08.231Z,980.48
2023-03-12T10:05:07.732Z,980.54
2023-03-12T10:06:07.588Z,980.53
2023-03-12T10:07:07.464Z,980.58
2023-03-12T10:08:23.528Z,980.59
2023-03-12T10:09:09.133Z,980.54
2023-03-12T10:10:07.425Z,980.54
2023-03-12T10:11:07.607Z,980.56
2023-03-12T10:12:07.404Z,980.57
2023-03-12T10:13:07.418Z,980.56
2023-03-12T10:14:07.663Z,980.56
2023-03-12T10:15:07.508Z,980.56
2023-03-12T10:16:07.573Z,980.55
2023-03-12T10:17:07.375Z,980.60
2023-03-12T10:18:07.453Z,980.59
2023-03-12T10:19:07.502Z,980.56
2023-03-12T10:20:07.297Z,980.58
2023-03-12T10:21:07.276Z,980.63
2023-03-12T10:22:07.277Z,980.60
2023-03-12T10:23:07.285Z,980.58
2023-03-12T10:24:07.246Z,980.51
2023-03-12T10:25:07.235Z,980.55
2023-03-12T10:26:07.233Z,980.53
2023-03-12T10:27:07.213Z,980.56
2023-03-12T10:28:07.209Z,980.58
2023-03-12T10:29:07.236Z,980.58
2023-03-12T10:30:07.374Z,980.57
2023-03-12T10:31:07.289Z,980.56
2023-03-12T10:32:07.382Z,980.60
2023-03-12T10:33:07.161Z,980.56
2023-03-12T10:34:07.204Z,980.56
2023-03-12T10:35:07.135Z,980.62
2023-03-12T10:36:07.856Z,980.59
2023-03-12T10:37:07.111Z,980.61
2023-03-12T10:38:07.814Z,980.60
2023-03-12T10:39:07.096Z,980.59
2023-03-12T10:40:07.775Z,980.67
2023-03-12T10:41:07.082Z,980.72
2023-03-12T10:42:07.333Z,980.73
2023-03-12T10:43:07.053Z,980.76
2023-03-12T10:44:07.755Z,980.70
2023-03-12T10:45:07.128Z,980.78
2023-03-12T10:46:07.059Z,980.77
2023-03-12T10:47:07.015Z,980.83
2023-03-12T10:48:07.035Z,980.88
2023-03-12T10:49:07.026Z,980.82
2023-03-12T10:50:07.002Z,980.85
2023-03-12T10:51:07.034Z,980.79
2023-03-12T10:52:06.971Z,980.78
2023-03-12T10:53:06.989Z,980.80
2023-03-12T10:54:07.096Z,980.87
2023-03-12T10:55:07.086Z,980.90
2023-03-12T10:56:06.944Z,980.90
2023-03-12T10:57:06.980Z,980.88
2023-03-12T10:58:07.020Z,980.92
2023-03-12T10:59:06.864Z,980.93
2023-03-12T11:00:07.118Z,980.94
2023-03-12T11:01:06.847Z,980.94
2023-03-12T11:02:06.938Z,980.93
2023-03-12T11:03:06.837Z,980.99
2023-03-12T11:04:06.809Z,980.97
2023-03-12T11:05:06.798Z,980.98
2023-03-12T11:06:06.861Z,981.01
2023-03-12T11:07:07.028Z,980.99
2023-03-12T11:08:06.788Z,980.98
2023-03-12T11:09:21.930Z,980.99
2023-03-12T11:10:07.780Z,981.04
2023-03-12T11:11:06.738Z,981.01
2023-03-12T11:12:06.720Z,981.00
2023-03-12T11:13:06.709Z,981.00
2023-03-12T11:14:06.701Z,981.04
2023-03-12T11:15:06.704Z,980.97
2023-03-12T11:16:06.727Z,980.98
2023-03-12T11:17:06.669Z,980.98
2023-03-12T11:18:06.684Z,980.95
2023-03-12T11:19:06.649Z,980.97
2023-03-12T11:20:06.628Z,980.92
2023-03-12T11:21:06.631Z,980.97
2023-03-12T11:22:06.610Z,980.96
2023-03-12T11:23:06.745Z,980.95
2023-03-12T11:24:06.690Z,980.98
2023-03-12T11:25:06.881Z,980.98
2023-03-12T11:26:06.590Z,980.94
2023-03-12T11:27:06.569Z,981.04
2023-03-12T11:28:06.582Z,981.05
2023-03-12T11:29:06.590Z,981.00
2023-03-12T11:30:06.583Z,981.00
2023-03-12T11:31:06.613Z,980.90
2023-03-12T11:32:06.535Z,980.95
2023-03-12T11:33:06.510Z,980.94
2023-03-12T11:34:06.491Z,980.89
2023-03-12T11:35:06.471Z,980.98
2023-03-12T11:36:06.462Z,981.03
2023-03-12T11:37:06.472Z,980.82
2023-03-12T11:38:06.451Z,980.90
2023-03-12T11:39:06.451Z,980.83
2023-03-12T11:40:06.420Z,980.86
2023-03-12T11:41:06.402Z,980.87
2023-03-12T11:42:06.413Z,980.85
2023-03-12T11:43:06.382Z,980.82
2023-03-12T11:44:06.387Z,980.95
2023-03-12T11:45:06.463Z,980.72
2023-03-12T11:46:06.465Z,980.78
2023-03-12T11:47:07.073Z,980.86
2023-03-12T11:48:06.380Z,980.84
2023-03-12T11:49:07.135Z,980.82
2023-03-12T11:50:06.334Z,980.98
2023-03-12T11:51:07.023Z,980.80
2023-03-12T11:52:06.308Z,980.85
2023-03-12T11:53:06.332Z,980.89
2023-03-12T11:54:06.308Z,980.76
2023-03-12T11:55:06.348Z,980.77
2023-03-12T11:56:06.256Z,980.80
2023-03-12T11:57:06.945Z,980.81
2023-03-12T11:58:06.237Z,980.85
2023-03-12T11:59:06.257Z,980.95
2023-03-12T12:00:06.216Z,981.04
2023-03-12T12:01:06.237Z,980.79
2023-03-12T12:02:06.290Z,980.86
2023-03-12T12:03:06.309Z,980.95
2023-03-12T12:04:06.168Z,980.84
2023-03-12T12:05:06.146Z,980.88
2023-03-12T12:06:06.158Z,980.94
2023-03-12T12:07:06.135Z,980.86
2023-03-12T12:08:06.144Z,980.78
2023-03-12T12:09:06.118Z,980.85
2023-03-12T12:10:06.101Z,980.77
2023-03-12T12:11:06.109Z,980.69
2023-03-12T12:12:06.094Z,980.73
2023-03-12T12:13:06.098Z,980.68
2023-03-12T12:14:06.123Z,980.63
2023-03-12T12:15:06.134Z,980.62
2023-03-12T12:16:06.083Z,980.63
2023-03-12T12:17:06.026Z,980.60
2023-03-12T12:18:06.277Z,980.58
2023-03-12T12:19:05.994Z,980.58
2023-03-12T12:20:05.989Z,980.65
2023-03-12T12:21:06.015Z,980.77
2023-03-12T12:22:05.983Z,980.70
2023-03-12T12:23:05.977Z,980.65
2023-03-12T12:24:05.964Z,980.66
2023-03-12T12:25:05.932Z,980.68
2023-03-12T12:26:05.950Z,980.63
2023-03-12T12:27:06.066Z,980.65
2023-03-12T12:28:06.186Z,980.61